New Jersey Responder — WBO8578 — position and weather

sailwx.info

Track history (hours):
 
Tides and Currents Weather Stations Pressure Air Temp Water Temp Dewpoint Dewpoint Depression Visibility Wind Speed Wind Dir Waves Ship Positions

New Jersey Responder

Owner: MARINE SPILL RESPONSE CORP, HERNDON, VA. More information available from US FCC via Universal Licensing System and Coast Guard Vessel Documentation Center.

Last reported at 2017-Dec-12 20:20 UTC. Time now 2017-Dec-16 22:34 UTC.
Position N 40°30' W 074°10'.

; draft 4 m.

Type: Pollution control. MMSI: 366594000.

Date/timePositionNaut miles runAvg speedWind from/ knotsBaromVisibWave heightAir tempDewpointWater temp
2017-Dec-12 20:20N 40°30' W 074°10'4 9.4
2017-Dec-12 19:57N 40°30' W 074°05'0 1.0
2017-Dec-12 19:30N 40°30' W 074°05'1 0.9
2017-Dec-12 18:37N 40°30' W 074°05'0 1.7
2017-Dec-12 18:21N 40°30' W 074°06'1 1.7
2017-Dec-12 17:58N 40°30' W 074°05'1 1.5
2017-Dec-12 17:29N 40°30' W 074°04'0 0.2
2017-Dec-12 16:56N 40°30' W 074°04'0 0.9
2017-Dec-12 16:25N 40°30' W 074°05'0 0.8
2017-Dec-12 15:52N 40°30' W 074°06'0 0.7
2017-Dec-12 15:20N 40°30' W 074°05'0 1.0
2017-Dec-12 14:53N 40°30' W 074°05'2 2.7
2017-Dec-12 13:57N 40°30' W 074°08'  
2017-Dec-08 18:56N 40°32' W 074°15'4 8.2
2017-Dec-08 18:27N 40°36' W 074°12'3 6.3
2017-Dec-08 18:00N 40°38' W 074°12'0 0.0
2017-Dec-08 17:30N 40°38' W 074°12'0 0.0
2017-Dec-08 16:54N 40°38' W 074°12'0 0.0
2017-Dec-08 16:30N 40°38' W 074°12'0 0.0
2017-Dec-08 15:54N 40°38' W 074°12'0 0.0
2017-Dec-08 15:30N 40°38' W 074°12'0 0.0
2017-Dec-08 14:57N 40°38' W 074°12'0 0.0
2017-Dec-08 14:24N 40°38' W 074°12'0 0.0
2017-Dec-08 14:00N 40°38' W 074°12'0 0.0
2017-Dec-08 13:30N 40°38' W 074°12'0 0.0
2017-Dec-08 12:54N 40°38' W 074°12'3 7.5
2017-Dec-08 12:28N 40°35' W 074°12'6 0.3
2017-Dec-07 18:04N 40°30' W 074°08'1 9.6
2017-Dec-07 17:56N 40°30' W 074°06'1 2.0
2017-Dec-07 17:20N 40°30' W 074°05'0 1.4
2017-Dec-07 17:00N 40°30' W 074°04'2 1.2
2017-Dec-07 14:54N 40°30' W 074°07'  
Track history (hours):
 
Tides and Currents Weather Stations Pressure Air Temp Water Temp Dewpoint Dewpoint Depression Visibility Wind Speed Wind Dir Waves Ship Positions

New Jersey Responder

Owner: MARINE SPILL RESPONSE CORP, HERNDON, VA. More information available from US FCC via Universal Licensing System and Coast Guard Vessel Documentation Center.

Last reported at 2017-Dec-12 20:20 UTC. Time now 2017-Dec-16 22:34 UTC.
Position N 40°30' W 074°10'.

; draft 4 m.

Type: Pollution control. MMSI: 366594000.

Date/timePositionNaut miles runAvg speedWind from/ knotsBaromVisibWave heightAir tempDewpointWater temp
2017-Dec-12 20:20N 40°30' W 074°10'4 9.4
2017-Dec-12 19:57N 40°30' W 074°05'0 1.0
2017-Dec-12 19:30N 40°30' W 074°05'1 0.9
2017-Dec-12 18:37N 40°30' W 074°05'0 1.7
2017-Dec-12 18:21N 40°30' W 074°06'1 1.7
2017-Dec-12 17:58N 40°30' W 074°05'1 1.5
2017-Dec-12 17:29N 40°30' W 074°04'0 0.2
2017-Dec-12 16:56N 40°30' W 074°04'0 0.9
2017-Dec-12 16:25N 40°30' W 074°05'0 0.8
2017-Dec-12 15:52N 40°30' W 074°06'0 0.7
2017-Dec-12 15:20N 40°30' W 074°05'0 1.0
2017-Dec-12 14:53N 40°30' W 074°05'2 2.7
2017-Dec-12 13:57N 40°30' W 074°08'  
2017-Dec-08 18:56N 40°32' W 074°15'4 8.2
2017-Dec-08 18:27N 40°36' W 074°12'3 6.3
2017-Dec-08 18:00N 40°38' W 074°12'0 0.0
2017-Dec-08 17:30N 40°38' W 074°12'0 0.0
2017-Dec-08 16:54N 40°38' W 074°12'0 0.0
2017-Dec-08 16:30N 40°38' W 074°12'0 0.0
2017-Dec-08 15:54N 40°38' W 074°12'0 0.0
2017-Dec-08 15:30N 40°38' W 074°12'0 0.0
2017-Dec-08 14:57N 40°38' W 074°12'0 0.0
2017-Dec-08 14:24N 40°38' W 074°12'0 0.0
2017-Dec-08 14:00N 40°38' W 074°12'0 0.0
2017-Dec-08 13:30N 40°38' W 074°12'0 0.0
2017-Dec-08 12:54N 40°38' W 074°12'3 7.5
2017-Dec-08 12:28N 40°35' W 074°12'6 0.3
2017-Dec-07 18:04N 40°30' W 074°08'1 9.6
2017-Dec-07 17:56N 40°30' W 074°06'1 2.0
2017-Dec-07 17:20N 40°30' W 074°05'0 1.4
2017-Dec-07 17:00N 40°30' W 074°04'2 1.2
2017-Dec-07 14:54N 40°30' W 074°07'  

Dump ship's entire track history